Time;durP1;ratioP1;P1;durP2;ratioP2;P2;SDS_P1;SDS_P2;PMS_P1;PMS_P2;Temp;Humidity;BMP_temperature;BMP_pressure;BME280_temperature;BME280_humidity;BME280_pressure;Samples;Min_cycle;Max_cycle;Signal;HPM_P1;HPM_P2
2022/03/05 00:00:43;;;;;;;14.97;11.67;;;3.50;57.70;;;;;;5030713;28;20205;-87
2022/03/05 00:03:13;;;;;;;15.43;11.30;;;3.50;58.30;;;;;;5039843;28;20200;-87
2022/03/05 00:05:39;;;;;;;13.87;10.03;;;3.60;57.90;;;;;;5037368;28;20200;-87
2022/03/05 00:08:06;;;;;;;13.60;11.10;;;3.60;57.40;;;;;;5020099;28;20215;-86
2022/03/05 00:10:32;;;;;;;15.87;10.70;;;3.60;57.40;;;;;;5017842;28;20709;-87
2022/03/05 00:13:01;;;;;;;13.30;11.53;;;3.50;57.50;;;;;;5014459;28;20529;-87
2022/03/05 00:15:28;;;;;;;15.03;11.27;;;3.30;58.40;;;;;;5000018;28;20201;-87
2022/03/05 00:17:57;;;;;;;13.07;10.73;;;3.20;58.70;;;;;;5032280;28;20526;-87
2022/03/05 00:20:24;;;;;;;17.73;11.20;;;3.10;59.40;;;;;;5027959;28;20217;-87
2022/03/05 00:22:53;;;;;;;16.27;11.77;;;3.00;60.10;;;;;;5011361;28;20209;-87
2022/03/05 00:25:24;;;;;;;15.17;11.07;;;2.90;60.30;;;;;;5028426;28;20221;-87
2022/03/05 00:27:50;;;;;;;14.67;9.90;;;2.90;60.60;;;;;;5016048;28;20798;-87
2022/03/05 00:30:16;;;;;;;14.90;10.57;;;3.00;61.30;;;;;;5027294;28;20222;-87
2022/03/05 00:32:42;;;;;;;15.20;10.90;;;3.00;61.10;;;;;;5028273;28;20225;-87
2022/03/05 00:35:08;;;;;;;14.10;10.60;;;3.10;60.60;;;;;;5010888;28;20196;-87
2022/03/05 00:37:34;;;;;;;12.53;10.07;;;3.20;60.60;;;;;;5035272;28;20194;-88
2022/03/05 00:40:00;;;;;;;14.33;11.70;;;3.30;60.00;;;;;;5021871;28;20193;-87
2022/03/05 00:42:26;;;;;;;13.10;9.87;;;3.40;60.00;;;;;;5019422;28;20216;-87
2022/03/05 00:44:52;;;;;;;14.43;10.83;;;3.50;60.10;;;;;;5025449;28;20227;-86
2022/03/05 00:47:18;;;;;;;16.13;10.97;;;3.50;58.90;;;;;;5018681;28;20590;-87
2022/03/05 00:49:44;;;;;;;14.70;9.83;;;3.60;58.70;;;;;;5003151;28;20192;-87
2022/03/05 00:52:10;;;;;;;12.17;10.60;;;3.50;59.20;;;;;;5022350;28;20236;-86
2022/03/05 00:54:36;;;;;;;12.73;10.60;;;3.60;58.80;;;;;;5020408;28;20264;-85
2022/03/05 00:57:02;;;;;;;16.80;11.20;;;3.60;59.00;;;;;;5025253;28;20221;-87
2022/03/05 00:59:28;;;;;;;14.43;11.30;;;3.60;58.60;;;;;;5033507;28;20193;-87
2022/03/05 01:01:55;;;;;;;15.77;11.03;;;3.60;57.70;;;;;;5019175;28;20190;-87
2022/03/05 01:04:21;;;;;;;15.80;10.83;;;3.50;58.60;;;;;;5019053;28;20193;-87
2022/03/05 01:06:46;;;;;;;14.17;10.97;;;3.40;58.80;;;;;;5008480;28;20502;-87
2022/03/05 01:09:12;;;;;;;13.33;10.10;;;3.30;59.20;;;;;;5022089;28;20192;-87
2022/03/05 01:11:38;;;;;;;14.57;10.67;;;3.20;59.50;;;;;;5030020;28;20308;-87
2022/03/05 01:14:04;;;;;;;15.50;10.53;;;3.20;59.80;;;;;;5022068;28;20713;-87
2022/03/05 01:16:30;;;;;;;12.93;10.53;;;3.30;59.90;;;;;;5010902;28;20213;-87
2022/03/05 01:18:56;;;;;;;14.73;11.33;;;3.30;59.30;;;;;;5015626;28;20743;-87
2022/03/05 01:21:22;;;;;;;12.73;10.37;;;3.20;59.10;;;;;;5008698;28;20193;-87
2022/03/05 01:23:47;;;;;;;15.63;11.63;;;3.10;59.60;;;;;;5015679;28;20197;-87
2022/03/05 01:26:13;;;;;;;14.37;10.80;;;3.10;60.10;;;;;;5031925;28;20249;-87
2022/03/05 01:28:39;;;;;;;13.37;11.00;;;3.10;60.00;;;;;;5029816;28;20193;-87
2022/03/05 01:31:05;;;;;;;13.77;10.10;;;2.90;60.00;;;;;;5012786;28;20206;-87
2022/03/05 01:33:30;;;;;;;14.13;10.10;;;2.80;61.00;;;;;;4997926;28;20572;-86
2022/03/05 01:35:56;;;;;;;15.03;10.77;;;2.80;61.00;;;;;;5013701;28;20215;-87
2022/03/05 01:38:22;;;;;;;15.23;10.60;;;2.70;61.10;;;;;;4988676;28;20217;-87
2022/03/05 01:40:48;;;;;;;15.67;10.40;;;2.70;61.30;;;;;;4995003;28;20240;-87
2022/03/05 01:43:14;;;;;;;14.97;10.50;;;2.70;61.10;;;;;;5032289;28;20189;-87
2022/03/05 01:45:40;;;;;;;15.97;12.13;;;2.60;61.40;;;;;;5010344;28;20196;-87
2022/03/05 01:48:07;;;;;;;12.40;11.03;;;2.60;61.40;;;;;;5020069;28;20197;-87
2022/03/05 01:50:33;;;;;;;15.87;10.77;;;2.60;61.90;;;;;;5010250;28;20650;-87
2022/03/05 01:52:59;;;;;;;14.83;11.27;;;2.60;61.60;;;;;;5014467;28;20220;-87
2022/03/05 01:55:26;;;;;;;18.17;11.33;;;2.50;61.60;;;;;;5044724;28;20220;-86
2022/03/05 01:57:52;;;;;;;14.50;10.53;;;2.40;62.10;;;;;;5019896;28;20253;-87
2022/03/05 02:00:18;;;;;;;12.70;10.13;;;2.40;62.10;;;;;;5021355;28;20213;-86
2022/03/05 02:02:45;;;;;;;14.33;10.67;;;2.30;62.10;;;;;;5025565;28;20248;-87
2022/03/05 02:05:12;;;;;;;13.70;10.67;;;2.30;62.10;;;;;;5012492;28;20392;-86
2022/03/05 02:07:38;;;;;;;13.93;9.77;;;2.20;62.70;;;;;;5030930;28;20194;-87
2022/03/05 02:10:06;;;;;;;14.30;10.87;;;2.20;62.90;;;;;;5013580;28;20200;-86
2022/03/05 02:12:34;;;;;;;12.43;9.40;;;2.20;63.20;;;;;;5028877;28;20308;-86
2022/03/05 02:15:00;;;;;;;14.87;11.17;;;2.10;63.00;;;;;;5004771;28;20231;-87
2022/03/05 02:17:27;;;;;;;14.73;9.93;;;2.10;63.60;;;;;;5031404;28;20200;-87
2022/03/05 02:19:54;;;;;;;12.57;9.53;;;2.00;64.00;;;;;;5011508;28;20208;-87
2022/03/05 02:22:20;;;;;;;13.97;10.33;;;2.00;64.00;;;;;;5014522;28;20189;-87
2022/03/05 02:24:50;;;;;;;13.97;10.97;;;2.00;63.60;;;;;;5032852;28;20201;-86
2022/03/05 02:27:16;;;;;;;16.17;11.43;;;2.00;63.80;;;;;;5029330;28;20304;-87
2022/03/05 02:29:42;;;;;;;15.00;11.13;;;2.00;63.40;;;;;;5029972;28;20208;-87
2022/03/05 02:32:11;;;;;;;13.73;10.47;;;2.00;63.20;;;;;;5032269;28;20284;-88
2022/03/05 02:34:37;;;;;;;13.50;10.33;;;2.00;63.70;;;;;;5024986;28;20193;-87
2022/03/05 02:37:03;;;;;;;16.40;11.07;;;2.00;63.60;;;;;;5011948;28;20229;-87
2022/03/05 02:39:29;;;;;;;16.57;11.13;;;1.90;64.00;;;;;;5038326;28;20196;-87
2022/03/05 02:41:56;;;;;;;12.93;10.50;;;1.80;64.30;;;;;;5003121;28;20218;-87
2022/03/05 02:44:22;;;;;;;12.53;10.13;;;1.70;64.70;;;;;;5026211;28;20208;-86
2022/03/05 02:46:50;;;;;;;16.77;10.30;;;1.70;65.00;;;;;;5036024;28;20224;-87
2022/03/05 02:49:16;;;;;;;14.57;9.93;;;1.90;64.70;;;;;;5021428;28;20209;-86
2022/03/05 02:51:42;;;;;;;14.60;10.43;;;1.90;63.90;;;;;;5025741;28;20239;-86
2022/03/05 02:54:08;;;;;;;13.70;9.43;;;1.90;64.10;;;;;;5024955;28;20189;-86
2022/03/05 02:56:33;;;;;;;14.20;10.17;;;2.10;64.20;;;;;;5052316;28;20215;-86
2022/03/05 02:59:00;;;;;;;13.87;10.40;;;2.10;63.50;;;;;;5029317;28;20181;-86
2022/03/05 03:01:25;;;;;;;14.50;10.47;;;2.10;62.90;;;;;;5049592;28;20204;-86
2022/03/05 03:03:51;;;;;;;14.67;11.13;;;2.10;63.70;;;;;;5035344;28;20197;-86
2022/03/05 03:06:17;;;;;;;17.63;11.10;;;2.20;63.20;;;;;;5027491;28;20232;-86
2022/03/05 03:08:43;;;;;;;15.37;11.43;;;2.30;63.00;;;;;;5045171;28;20234;-86
2022/03/05 03:11:09;;;;;;;12.53;9.97;;;2.30;62.20;;;;;;5030122;28;20280;-85
2022/03/05 03:13:34;;;;;;;14.37;10.23;;;2.30;62.20;;;;;;5035262;28;20703;-87
2022/03/05 03:16:00;;;;;;;14.97;10.30;;;2.30;62.60;;;;;;5032840;28;20239;-87
2022/03/05 03:18:26;;;;;;;14.50;9.97;;;2.30;62.30;;;;;;5022682;28;20201;-87
2022/03/05 03:20:52;;;;;;;15.93;10.47;;;2.20;62.10;;;;;;5022127;28;20197;-86
2022/03/05 03:23:18;;;;;;;12.50;10.00;;;2.30;62.60;;;;;;5025808;28;20195;-87
2022/03/05 03:25:44;;;;;;;13.63;10.40;;;2.20;63.00;;;;;;5016749;28;20221;-87
2022/03/05 03:28:10;;;;;;;13.20;10.23;;;2.20;62.50;;;;;;5038213;28;20218;-86
2022/03/05 03:30:38;;;;;;;12.07;9.90;;;2.30;62.70;;;;;;5005569;28;20197;-86
2022/03/05 03:33:04;;;;;;;17.57;11.37;;;2.20;62.30;;;;;;5001855;28;20233;-87
2022/03/05 03:35:31;;;;;;;11.43;9.73;;;2.10;62.40;;;;;;5021420;28;20401;-87
2022/03/05 03:37:57;;;;;;;15.80;10.70;;;2.10;63.10;;;;;;5015892;28;20186;-87
2022/03/05 03:40:23;;;;;;;14.07;10.40;;;1.80;63.40;;;;;;5026020;28;20189;-87
2022/03/05 03:42:52;;;;;;;12.97;9.97;;;1.60;64.60;;;;;;4985569;28;20189;-86
2022/03/05 03:45:19;;;;;;;14.67;10.73;;;1.60;64.90;;;;;;5040003;28;20587;-87
2022/03/05 03:47:48;;;;;;;12.67;10.57;;;1.70;64.80;;;;;;5003229;28;20224;-87
2022/03/05 03:50:16;;;;;;;13.77;10.33;;;1.70;65.00;;;;;;5009655;28;20197;-87
2022/03/05 03:52:42;;;;;;;13.37;10.73;;;1.70;64.40;;;;;;5031057;28;20197;-87
2022/03/05 03:55:13;;;;;;;14.03;10.33;;;1.70;64.20;;;;;;5019757;28;20748;-87
2022/03/05 03:57:39;;;;;;;12.10;9.37;;;1.70;64.30;;;;;;5025807;28;20165;-87
2022/03/05 04:00:08;;;;;;;12.87;10.27;;;1.70;64.10;;;;;;5008085;28;20198;-87
2022/03/05 04:02:34;;;;;;;12.87;10.13;;;1.60;64.40;;;;;;5020309;28;20185;-86
2022/03/05 04:05:00;;;;;;;13.77;10.10;;;1.50;65.40;;;;;;5022033;28;20196;-87
2022/03/05 04:10:11;;;;;;;14.53;9.23;;;1.70;64.80;;;;;;5023797;28;20273;-87
2022/03/05 04:12:37;;;;;;;13.17;10.50;;;1.60;64.80;;;;;;5002339;28;20213;-86
2022/03/05 04:15:07;;;;;;;13.80;10.43;;;1.60;64.50;;;;;;4989338;28;20177;-86
2022/03/05 04:17:33;;;;;;;13.43;9.53;;;1.60;65.00;;;;;;5027947;28;20182;-87
2022/03/05 04:20:02;;;;;;;11.90;9.87;;;1.50;65.30;;;;;;5005724;28;20193;-87
2022/03/05 04:22:30;;;;;;;15.47;11.37;;;1.50;65.20;;;;;;4998139;28;20196;-87
2022/03/05 04:24:56;;;;;;;14.40;9.87;;;1.50;65.10;;;;;;5024318;28;20193;-88
2022/03/05 04:27:22;;;;;;;13.70;9.93;;;1.40;65.60;;;;;;5007660;28;20227;-87
2022/03/05 04:29:48;;;;;;;12.87;10.33;;;1.30;66.30;;;;;;5002826;28;20193;-87
2022/03/05 04:32:15;;;;;;;13.93;9.87;;;1.40;66.40;;;;;;5020812;28;20217;-87
2022/03/05 04:34:41;;;;;;;12.20;10.17;;;1.30;66.30;;;;;;5027356;28;20199;-88
2022/03/05 04:37:07;;;;;;;14.50;9.87;;;1.30;66.30;;;;;;5028162;28;20209;-87
2022/03/05 04:39:35;;;;;;;14.33;10.57;;;1.20;66.70;;;;;;5020048;28;20181;-87
2022/03/05 04:42:02;;;;;;;14.97;10.80;;;1.30;67.00;;;;;;5032674;28;20185;-87
2022/03/05 04:44:28;;;;;;;13.13;10.03;;;1.10;67.40;;;;;;5027287;28;20213;-87
2022/03/05 04:46:54;;;;;;;12.80;9.97;;;1.00;69.10;;;;;;5026789;28;20270;-87
2022/03/05 04:49:21;;;;;;;13.30;10.27;;;1.00;69.00;;;;;;5037578;28;20189;-87
2022/03/05 04:51:47;;;;;;;15.20;9.90;;;1.10;69.40;;;;;;5009417;28;20216;-87
2022/03/05 04:54:16;;;;;;;14.13;10.57;;;1.00;69.40;;;;;;5039932;28;20403;-87
2022/03/05 04:56:52;;;;;;;13.07;9.30;;;0.80;70.60;;;;;;5027365;23;20324;-88
2022/03/05 04:59:30;;;;;;;14.77;10.17;;;0.80;71.30;;;;;;5026910;28;20665;-87
2022/03/05 05:02:00;;;;;;;12.37;9.43;;;0.80;70.70;;;;;;5019440;28;20217;-87
2022/03/05 05:04:32;;;;;;;12.90;9.53;;;0.80;71.20;;;;;;4990659;28;20193;-87
2022/03/05 05:07:00;;;;;;;13.50;10.20;;;0.70;72.00;;;;;;5007187;28;20209;-87
2022/03/05 05:09:38;;;;;;;12.30;9.53;;;0.70;71.90;;;;;;5005620;28;20173;-87
2022/03/05 05:12:16;;;;;;;13.60;9.93;;;0.60;71.70;;;;;;5019924;28;20218;-87
2022/03/05 05:14:45;;;;;;;12.30;9.63;;;0.60;72.30;;;;;;5023219;28;20185;-86
2022/03/05 05:17:27;;;;;;;12.33;9.43;;;0.60;72.70;;;;;;5023552;28;20251;-87
2022/03/05 05:20:04;;;;;;;13.67;9.90;;;0.50;72.70;;;;;;5019454;28;20208;-88
2022/03/05 05:22:34;;;;;;;13.43;10.10;;;0.60;72.60;;;;;;5005084;28;20207;-87
2022/03/05 05:25:07;;;;;;;14.77;10.20;;;0.60;72.60;;;;;;5014724;28;20189;-87
2022/03/05 05:27:40;;;;;;;12.13;9.57;;;0.50;73.20;;;;;;5020914;28;20181;-87
2022/03/05 05:30:07;;;;;;;15.27;9.50;;;0.60;73.10;;;;;;4998744;28;20336;-87
2022/03/05 05:32:33;;;;;;;12.27;9.90;;;0.50;73.10;;;;;;5018094;28;20224;-87
2022/03/05 05:34:59;;;;;;;13.00;9.53;;;0.50;73.00;;;;;;5018211;28;20189;-87
2022/03/05 05:37:25;;;;;;;13.17;9.77;;;0.50;73.40;;;;;;5017886;28;20201;-87
2022/03/05 05:39:51;;;;;;;12.67;9.43;;;0.50;73.00;;;;;;5001262;28;20198;-87
2022/03/05 05:42:17;;;;;;;13.67;10.47;;;0.50;73.60;;;;;;5008863;28;20801;-87
2022/03/05 05:44:43;;;;;;;13.77;10.20;;;0.60;72.90;;;;;;5020054;28;20212;-88
2022/03/05 05:47:09;;;;;;;14.80;9.47;;;0.60;73.60;;;;;;4986188;28;20258;-87
2022/03/05 05:49:36;;;;;;;17.07;11.07;;;0.60;73.00;;;;;;5006302;28;20185;-87
2022/03/05 05:52:03;;;;;;;13.43;9.30;;;0.60;72.60;;;;;;5005005;28;20225;-87
2022/03/05 05:54:30;;;;;;;12.70;10.17;;;0.60;72.70;;;;;;5019061;28;20569;-87
2022/03/05 05:56:56;;;;;;;12.77;9.90;;;0.60;72.50;;;;;;5000285;28;20917;-87
2022/03/05 05:59:22;;;;;;;15.07;10.20;;;0.60;71.90;;;;;;5002024;28;20190;-87
2022/03/05 06:01:48;;;;;;;14.03;10.60;;;0.70;72.50;;;;;;4999798;28;20186;-87
2022/03/05 06:04:14;;;;;;;14.27;10.47;;;0.60;72.20;;;;;;4999558;28;20202;-89
2022/03/05 06:06:41;;;;;;;14.13;9.13;;;0.70;72.40;;;;;;5001785;28;20214;-87
2022/03/05 06:09:07;;;;;;;12.20;9.73;;;0.80;71.70;;;;;;5003081;28;20200;-87
2022/03/05 06:11:34;;;;;;;13.30;9.23;;;0.80;71.30;;;;;;5001100;28;20233;-87
2022/03/05 06:14:00;;;;;;;11.87;8.93;;;0.80;71.80;;;;;;4989393;28;20216;-87
2022/03/05 06:16:26;;;;;;;13.50;9.47;;;1.00;71.10;;;;;;4974314;28;20267;-87
2022/03/05 06:18:53;;;;;;;11.97;9.27;;;1.00;69.90;;;;;;5004265;28;20257;-86
2022/03/05 06:21:19;;;;;;;12.70;9.50;;;1.10;70.10;;;;;;4987404;28;20220;-87
2022/03/05 06:23:46;;;;;;;12.13;9.67;;;1.20;69.40;;;;;;5004534;28;20193;-87
2022/03/05 06:26:12;;;;;;;13.33;10.13;;;1.10;69.60;;;;;;5016241;28;20237;-87
2022/03/05 06:28:38;;;;;;;11.73;9.83;;;1.00;69.60;;;;;;5000124;28;20201;-87
2022/03/05 06:31:06;;;;;;;14.17;10.23;;;1.00;70.10;;;;;;5004899;28;20193;-87
2022/03/05 06:33:34;;;;;;;12.57;10.17;;;1.10;69.80;;;;;;4995730;28;20192;-87
2022/03/05 06:36:01;;;;;;;12.67;10.17;;;1.00;69.80;;;;;;5002296;28;20214;-87
2022/03/05 06:38:29;;;;;;;12.47;10.20;;;1.00;70.10;;;;;;4998256;28;20208;-87
2022/03/05 06:40:58;;;;;;;13.30;10.07;;;1.00;69.90;;;;;;4974329;28;20221;-87
2022/03/05 06:43:27;;;;;;;12.00;9.87;;;1.00;70.30;;;;;;5004145;28;20190;-86
2022/03/05 06:45:53;;;;;;;14.60;10.90;;;0.90;70.50;;;;;;4986862;23;20217;-91
2022/03/05 06:48:18;;;;;;;12.87;9.70;;;0.90;70.30;;;;;;5022298;28;20578;-91
2022/03/05 06:50:44;;;;;;;20.63;11.27;;;0.80;71.10;;;;;;5023011;28;20214;-91
2022/03/05 06:53:10;;;;;;;13.07;9.50;;;0.70;71.50;;;;;;5006586;28;20619;-93
2022/03/05 06:55:36;;;;;;;14.07;10.40;;;0.70;71.70;;;;;;5007310;28;20182;-92
2022/03/05 06:58:02;;;;;;;13.13;11.20;;;0.70;72.10;;;;;;5024230;28;20529;-93
2022/03/05 07:00:28;;;;;;;15.67;10.50;;;0.70;72.20;;;;;;5023061;28;20216;-93
2022/03/05 07:02:53;;;;;;;13.37;10.77;;;0.70;72.00;;;;;;5024141;28;20190;-93
2022/03/05 07:05:19;;;;;;;17.47;12.77;;;0.90;71.40;;;;;;5011264;28;20303;-93
2022/03/05 07:07:45;;;;;;;15.97;12.70;;;0.90;70.90;;;;;;5027405;28;20181;-93
2022/03/05 07:10:11;;;;;;;13.87;10.50;;;1.00;70.30;;;;;;5023813;28;20213;-93
2022/03/05 07:12:37;;;;;;;21.53;15.67;;;0.90;70.70;;;;;;5025510;28;20221;-92
2022/03/05 07:15:04;;;;;;;16.97;13.13;;;0.90;71.00;;;;;;5034982;28;20193;-92
2022/03/05 07:17:30;;;;;;;18.33;14.13;;;0.90;71.30;;;;;;5018745;28;20189;-93
2022/03/05 07:19:55;;;;;;;14.77;12.27;;;1.00;71.00;;;;;;5010061;28;20312;-92
2022/03/05 07:22:21;;;;;;;13.83;10.70;;;0.90;70.30;;;;;;5022593;28;20193;-93
2022/03/05 07:24:47;;;;;;;15.33;11.33;;;1.00;70.80;;;;;;5022492;28;20261;-93
2022/03/05 07:27:13;;;;;;;14.57;11.63;;;1.10;70.00;;;;;;5031307;28;20188;-93
2022/03/05 07:29:39;;;;;;;15.40;11.70;;;1.10;69.70;;;;;;5017254;28;20217;-93
2022/03/05 07:32:05;;;;;;;13.23;10.60;;;1.20;69.20;;;;;;5022540;28;20214;-92
2022/03/05 07:34:31;;;;;;;15.03;12.03;;;1.30;68.90;;;;;;5033286;28;20200;-93
2022/03/05 07:36:57;;;;;;;14.50;11.40;;;1.30;69.00;;;;;;5047589;28;20189;-92
2022/03/05 07:39:24;;;;;;;15.10;11.73;;;1.30;68.50;;;;;;5011678;28;20221;-93
2022/03/05 07:41:50;;;;;;;14.43;11.03;;;1.30;67.50;;;;;;5026464;28;20227;-93
2022/03/05 07:44:16;;;;;;;14.90;11.80;;;1.40;67.30;;;;;;5010273;28;20193;-93
2022/03/05 07:46:42;;;;;;;12.37;10.17;;;1.50;66.90;;;;;;5024483;28;20206;-93
2022/03/05 07:49:08;;;;;;;13.87;11.40;;;1.50;66.70;;;;;;5025226;28;20193;-93
2022/03/05 07:51:34;;;;;;;15.80;12.33;;;1.60;66.90;;;;;;5006680;28;20225;-93
2022/03/05 07:54:00;;;;;;;14.63;10.57;;;1.60;66.50;;;;;;5023865;28;20196;-92
2022/03/05 07:56:26;;;;;;;15.73;11.07;;;1.70;66.50;;;;;;5008698;28;20228;-92
2022/03/05 07:58:52;;;;;;;13.97;10.50;;;1.70;65.20;;;;;;5023866;28;20189;-93
2022/03/05 08:01:18;;;;;;;13.70;10.57;;;1.80;65.00;;;;;;5029021;28;20189;-92
2022/03/05 08:03:44;;;;;;;11.67;9.50;;;1.90;64.70;;;;;;5013027;28;20277;-92
2022/03/05 08:06:10;;;;;;;12.17;9.90;;;2.00;63.20;;;;;;5029993;28;20219;-92
2022/03/05 08:08:35;;;;;;;14.13;10.37;;;2.10;62.40;;;;;;5018420;28;20272;-92
2022/03/05 08:11:03;;;;;;;16.23;11.13;;;2.20;62.10;;;;;;5029556;28;20862;-91
2022/03/05 08:13:29;;;;;;;11.70;9.50;;;2.30;60.70;;;;;;5030254;28;20188;-91
2022/03/05 08:15:56;;;;;;;12.50;10.10;;;2.40;60.00;;;;;;5030909;28;20196;-92
2022/03/05 08:18:23;;;;;;;13.80;10.50;;;2.50;59.40;;;;;;5040625;28;20205;-92
2022/03/05 08:20:49;;;;;;;12.93;9.93;;;2.50;59.30;;;;;;5036308;28;20200;-92
2022/03/05 08:23:15;;;;;;;14.63;11.07;;;2.60;59.00;;;;;;5039708;28;20231;-91
2022/03/05 08:25:42;;;;;;;13.90;10.67;;;2.70;58.80;;;;;;5027058;28;20193;-91
2022/03/05 08:28:08;;;;;;;14.30;11.03;;;2.80;58.20;;;;;;5040225;28;20201;-92
2022/03/05 08:30:34;;;;;;;12.73;10.33;;;2.80;58.10;;;;;;5026026;28;20271;-88
2022/03/05 08:33:00;;;;;;;14.53;10.57;;;2.80;59.40;;;;;;5026411;28;20256;-88
2022/03/05 08:35:27;;;;;;;14.03;11.17;;;3.00;57.40;;;;;;5027597;28;20193;-89
2022/03/05 08:37:53;;;;;;;15.50;11.13;;;3.10;58.80;;;;;;5027450;28;20177;-88
2022/03/05 08:40:19;;;;;;;15.50;11.87;;;3.40;57.20;;;;;;5028297;28;20216;-87
2022/03/05 08:42:48;;;;;;;19.67;12.03;;;3.50;56.20;;;;;;5028794;28;20185;-86
2022/03/05 08:45:16;;;;;;;13.67;10.60;;;3.60;56.10;;;;;;5010027;28;20204;-88
2022/03/05 08:47:44;;;;;;;14.73;12.13;;;3.70;55.30;;;;;;5026919;28;20213;-87
2022/03/05 08:50:10;;;;;;;15.33;11.87;;;3.80;54.10;;;;;;5026683;28;20219;-89
2022/03/05 08:52:36;;;;;;;14.97;11.37;;;3.80;54.70;;;;;;5026788;28;20237;-89
2022/03/05 08:55:13;;;;;;;21.63;11.67;;;3.90;54.10;;;;;;5028880;28;20648;-88
2022/03/05 08:57:40;;;;;;;16.43;12.10;;;4.00;53.70;;;;;;5025968;28;20667;-90
2022/03/05 09:00:09;;;;;;;16.07;11.90;;;4.00;52.90;;;;;;5027233;28;20222;-89
2022/03/05 09:02:35;;;;;;;14.57;11.97;;;4.00;53.60;;;;;;5028768;28;20189;-90
2022/03/05 09:05:01;;;;;;;16.50;12.03;;;4.10;52.70;;;;;;5030233;28;20200;-89
2022/03/05 09:07:27;;;;;;;16.60;12.23;;;4.20;52.50;;;;;;5028212;28;20189;-90
2022/03/05 09:09:53;;;;;;;16.90;12.97;;;4.20;53.20;;;;;;5009931;28;20209;-90
2022/03/05 09:12:19;;;;;;;16.57;12.60;;;4.30;53.00;;;;;;5025476;28;20301;-91
2022/03/05 09:14:46;;;;;;;15.13;11.97;;;4.30;52.60;;;;;;5023500;28;20256;-89
2022/03/05 09:17:13;;;;;;;15.70;12.00;;;4.40;52.20;;;;;;5024033;28;20205;-90
2022/03/05 09:19:39;;;;;;;16.60;12.47;;;4.70;51.70;;;;;;5025014;28;20214;-89
2022/03/05 09:22:07;;;;;;;15.77;12.27;;;4.80;50.60;;;;;;5020404;28;20200;-92
2022/03/05 09:24:33;;;;;;;16.07;12.37;;;4.80;50.90;;;;;;5008589;28;20220;-90
2022/03/05 09:26:59;;;;;;;13.17;11.40;;;4.80;50.40;;;;;;5024884;28;20193;-90
2022/03/05 09:29:25;;;;;;;18.53;11.87;;;5.10;50.10;;;;;;5025619;28;20221;-90
2022/03/05 09:31:51;;;;;;;15.53;11.17;;;5.20;49.00;;;;;;5024171;28;20284;-91
2022/03/05 09:34:17;;;;;;;14.43;11.03;;;5.40;47.50;;;;;;4991000;28;20201;-91
2022/03/05 09:36:43;;;;;;;17.67;11.63;;;5.30;48.10;;;;;;4990876;28;20178;-91
2022/03/05 09:39:09;;;;;;;15.80;11.20;;;5.50;47.90;;;;;;5016468;28;20209;-89
2022/03/05 09:41:38;;;;;;;15.87;11.50;;;5.60;46.80;;;;;;5025223;28;20228;-90
2022/03/05 09:44:04;;;;;;;21.17;12.57;;;5.70;47.20;;;;;;5021560;28;20197;-90
2022/03/05 09:46:30;;;;;;;24.77;11.73;;;5.80;47.40;;;;;;5018824;28;20248;-90
2022/03/05 09:48:58;;;;;;;13.63;11.03;;;6.00;44.90;;;;;;5038427;28;20166;-90
2022/03/05 09:51:24;;;;;;;22.17;10.97;;;6.00;45.70;;;;;;5038843;28;20201;-91
2022/03/05 09:53:53;;;;;;;17.57;11.53;;;6.30;45.40;;;;;;5037034;28;20420;-91
2022/03/05 09:56:20;;;;;;;29.63;12.03;;;6.30;45.30;;;;;;5036009;28;20202;-91
2022/03/05 09:58:47;;;;;;;13.73;10.20;;;6.50;45.00;;;;;;5028478;28;20193;-91
2022/03/05 10:01:13;;;;;;;14.33;11.87;;;6.60;44.40;;;;;;5027687;28;20225;-93
2022/03/05 10:03:47;;;;;;;14.10;11.03;;;6.70;43.50;;;;;;5016297;28;20185;-93
2022/03/05 10:06:16;;;;;;;13.17;10.87;;;6.90;43.10;;;;;;5031284;28;20208;-94
2022/03/05 10:08:42;;;;;;;12.03;9.50;;;7.00;41.40;;;;;;5030623;28;20174;-94
2022/03/05 10:11:09;;;;;;;11.30;9.67;;;7.00;41.70;;;;;;5029385;28;20217;-93
2022/03/05 10:13:36;;;;;;;15.00;10.93;;;7.00;41.10;;;;;;5029123;28;20201;-94
2022/03/05 10:16:29;;;;;;;12.37;9.53;;;7.30;39.80;;;;;;5028282;28;20180;-93
2022/03/05 10:19:16;;;;;;;15.07;10.50;;;7.30;39.40;;;;;;5026155;28;20264;-90
2022/03/05 10:22:03;;;;;;;9.77;8.77;;;7.40;39.40;;;;;;5030638;28;20221;-90
2022/03/05 10:24:39;;;;;;;13.63;10.50;;;7.40;38.80;;;;;;5026767;28;20178;-90
2022/03/05 10:27:08;;;;;;;13.13;9.57;;;7.60;39.90;;;;;;5026982;28;20188;-90
2022/03/05 10:29:39;;;;;;;10.47;9.33;;;7.90;38.60;;;;;;5010532;28;20213;-90
2022/03/05 10:32:07;;;;;;;13.17;9.67;;;8.00;37.40;;;;;;5026543;28;20232;-89
2022/03/05 10:34:53;;;;;;;11.30;8.97;;;8.00;37.30;;;;;;5027714;28;20186;-90
2022/03/05 10:37:21;;;;;;;10.67;9.53;;;8.20;35.70;;;;;;5039570;28;20549;-91
2022/03/05 10:39:52;;;;;;;10.57;8.37;;;8.00;36.20;;;;;;5009962;28;20205;-91
2022/03/05 10:42:27;;;;;;;10.03;8.80;;;8.20;35.90;;;;;;5029894;28;20194;-92
2022/03/05 10:45:03;;;;;;;9.90;8.50;;;8.50;36.00;;;;;;5031134;28;20251;-91
2022/03/05 10:47:37;;;;;;;11.63;8.30;;;8.80;35.30;;;;;;5023783;28;20217;-84
2022/03/05 10:50:24;;;;;;;10.30;8.13;;;8.80;34.50;;;;;;5008684;28;20217;-91
2022/03/05 10:52:53;;;;;;;9.80;8.17;;;9.10;33.20;;;;;;5027215;28;20220;-90
2022/03/05 10:55:24;;;;;;;8.67;7.20;;;9.20;33.40;;;;;;5031683;28;20278;-92
2022/03/05 10:58:02;;;;;;;8.40;7.57;;;9.20;31.50;;;;;;4995824;28;20186;-91
2022/03/05 11:00:29;;;;;;;8.27;6.93;;;9.40;33.00;;;;;;5027216;28;20189;-91
2022/03/05 11:02:57;;;;;;;11.10;8.47;;;9.70;32.50;;;;;;5025796;28;20204;-91
2022/03/05 11:05:24;;;;;;;8.30;7.40;;;10.10;31.80;;;;;;5030678;28;20199;-91
2022/03/05 11:07:50;;;;;;;9.13;6.83;;;9.80;31.00;;;;;;5024456;28;20189;-91
2022/03/05 11:10:18;;;;;;;8.30;7.27;;;9.80;31.60;;;;;;5011691;28;20216;-91
2022/03/05 11:12:51;;;;;;;6.33;5.60;;;10.10;31.10;;;;;;5026037;28;20205;-91
2022/03/05 11:15:18;;;;;;;7.40;5.90;;;10.20;28.30;;;;;;5024372;28;20197;-91
2022/03/05 11:17:48;;;;;;;8.23;6.43;;;9.80;29.00;;;;;;5025170;28;20185;-90
2022/03/05 11:20:15;;;;;;;6.80;6.10;;;9.90;28.70;;;;;;5021725;28;20212;-90
2022/03/05 11:22:42;;;;;;;7.70;6.90;;;9.40;29.50;;;;;;5025533;28;20272;-91
2022/03/05 11:25:14;;;;;;;6.50;5.63;;;9.60;29.70;;;;;;5027305;28;20200;-90
2022/03/05 11:27:50;;;;;;;6.93;6.23;;;9.50;29.20;;;;;;5007679;28;20217;-90
2022/03/05 11:30:17;;;;;;;6.43;5.73;;;9.40;29.70;;;;;;5024584;28;20217;-91
2022/03/05 11:32:43;;;;;;;6.03;5.30;;;9.60;29.30;;;;;;5025778;28;20243;-90
2022/03/05 11:35:25;;;;;;;6.20;5.50;;;9.90;29.60;;;;;;4992940;28;20185;-90
2022/03/05 11:37:52;;;;;;;6.90;5.67;;;10.10;29.10;;;;;;5009440;28;20573;-90
2022/03/05 11:40:41;;;;;;;8.90;6.17;;;10.20;28.80;;;;;;5025413;28;20220;-90
2022/03/05 11:43:22;;;;;;;7.00;5.87;;;10.00;29.30;;;;;;5027433;28;20241;-90
2022/03/05 11:45:49;;;;;;;10.07;6.27;;;10.10;29.50;;;;;;5024325;28;20269;-90
2022/03/05 11:48:38;;;;;;;7.40;5.93;;;9.90;28.70;;;;;;5014722;28;20194;-90
2022/03/05 11:51:16;;;;;;;8.40;6.27;;;9.80;28.60;;;;;;5024978;28;20232;-89
2022/03/05 11:53:43;;;;;;;8.33;7.23;;;9.70;29.30;;;;;;5024394;28;20203;-89
2022/03/05 11:56:26;;;;;;;9.27;7.83;;;10.10;29.70;;;;;;5025798;28;20189;-89
2022/03/05 11:58:51;;;;;;;8.90;7.70;;;10.60;29.40;;;;;;5024686;28;20184;-89
2022/03/05 12:01:35;;;;;;;8.70;7.73;;;11.00;29.40;;;;;;5019539;28;20209;-89
2022/03/05 12:04:16;;;;;;;10.60;8.43;;;11.30;29.60;;;;;;5021716;28;20268;-89
2022/03/05 12:06:44;;;;;;;9.73;8.73;;;11.30;29.60;;;;;;5024695;28;20192;-90
2022/03/05 12:09:31;;;;;;;8.90;8.00;;;11.50;29.70;;;;;;5025160;28;20239;-89
2022/03/05 12:11:57;;;;;;;9.80;8.80;;;11.50;29.00;;;;;;5032289;28;20225;-89
2022/03/05 12:14:23;;;;;;;10.03;9.07;;;11.40;29.30;;;;;;5018721;28;20186;-89
2022/03/05 12:16:48;;;;;;;10.33;9.27;;;11.80;29.60;;;;;;5040659;28;20198;-89
2022/03/05 12:19:15;;;;;;;10.30;9.17;;;12.00;28.90;;;;;;5024313;28;20188;-90
2022/03/05 12:21:41;;;;;;;11.20;10.07;;;11.90;29.00;;;;;;5025924;28;20189;-89
2022/03/05 12:24:09;;;;;;;9.23;8.43;;;11.70;29.10;;;;;;5024239;28;20217;-89
2022/03/05 12:26:43;;;;;;;9.50;8.70;;;12.10;29.10;;;;;;5024063;28;20199;-89
2022/03/05 12:29:10;;;;;;;9.07;8.27;;;12.40;27.80;;;;;;5023392;28;20203;-89
2022/03/05 12:31:43;;;;;;;9.30;8.40;;;12.50;27.80;;;;;;5024948;28;20279;-90
2022/03/05 12:34:11;;;;;;;9.17;8.27;;;12.60;27.70;;;;;;5024873;28;20421;-90
2022/03/05 12:36:44;;;;;;;9.10;8.20;;;12.20;28.50;;;;;;5023909;28;20233;-90
2022/03/05 12:39:10;;;;;;;9.23;8.33;;;12.30;27.80;;;;;;5024873;28;20191;-89
2022/03/05 12:41:36;;;;;;;10.47;9.47;;;12.10;28.40;;;;;;5022976;28;20242;-89
2022/03/05 12:44:02;;;;;;;11.03;8.53;;;12.50;28.10;;;;;;5022918;28;20193;-90
2022/03/05 12:46:28;;;;;;;9.20;8.30;;;12.80;28.10;;;;;;5021942;28;20235;-89